Weather at Dayrestan Airport

Public forecast

Using degrees Celsius for public forecast. Weather courtesy of forecast.io.

Current aviation weather report (METAR) for Dayrestan Airport

Retrieved 2021/04/11 06:00 UTC (3 minutes ago):

OIKQ 110600Z 09012KT 6000 FEW025 29/25 Q1012 NOSIG

Aviation forecast (TAF) for Dayrestan Airport

Forecast is more than 12 hours old.

Retrieved 2018/01/30 06:39 UTC (3 years ago):

TAF OIKQ 300530Z 3006/3112 06003MPS 9999 FEW030 BECMG 3010/3012 24008MPS BECMG 3105/3107 24003M